sensor_id;sensor_type;location;lat;lon;timestamp;pressure;altitude;pressure_sealevel;temperature;humidity
16544;BME280;8384;47.996;7.786;2023-02-18T00:00:14;100022.50;;;10.40;100.00
16544;BME280;8384;47.996;7.786;2023-02-18T00:02:41;99998.94;;;10.39;100.00
16544;BME280;8384;47.996;7.786;2023-02-18T00:05:07;100006.59;;;10.49;100.00
16544;BME280;8384;47.996;7.786;2023-02-18T00:07:33;100010.25;;;10.43;100.00
16544;BME280;8384;47.996;7.786;2023-02-18T00:09:59;100003.13;;;10.42;100.00
16544;BME280;8384;47.996;7.786;2023-02-18T00:12:24;99977.03;;;10.20;100.00
16544;BME280;8384;47.996;7.786;2023-02-18T00:14:50;100010.31;;;10.36;100.00
16544;BME280;8384;47.996;7.786;2023-02-18T00:17:15;100009.25;;;10.37;100.00
16544;BME280;8384;47.996;7.786;2023-02-18T00:19:40;100010.53;;;10.34;100.00
16544;BME280;8384;47.996;7.786;2023-02-18T00:22:06;100010.91;;;10.38;100.00
16544;BME280;8384;47.996;7.786;2023-02-18T00:24:31;100014.72;;;10.37;100.00
16544;BME280;8384;47.996;7.786;2023-02-18T00:26:56;100030.88;;;10.20;100.00
16544;BME280;8384;47.996;7.786;2023-02-18T00:29:21;100000.28;;;10.11;100.00
16544;BME280;8384;47.996;7.786;2023-02-18T00:31:47;100001.59;;;10.27;100.00
16544;BME280;8384;47.996;7.786;2023-02-18T00:34:12;100009.91;;;10.14;100.00
16544;BME280;8384;47.996;7.786;2023-02-18T00:36:38;99969.31;;;9.99;100.00
16544;BME280;8384;47.996;7.786;2023-02-18T00:39:05;99991.63;;;10.33;100.00
16544;BME280;8384;47.996;7.786;2023-02-18T00:41:32;99991.69;;;10.08;100.00
16544;BME280;8384;47.996;7.786;2023-02-18T00:43:58;99988.66;;;10.16;100.00
16544;BME280;8384;47.996;7.786;2023-02-18T00:46:24;99967.88;;;10.15;100.00
16544;BME280;8384;47.996;7.786;2023-02-18T00:48:50;99969.00;;;10.26;100.00
16544;BME280;8384;47.996;7.786;2023-02-18T00:51:15;99965.53;;;10.18;100.00
16544;BME280;8384;47.996;7.786;2023-02-18T00:53:40;99980.19;;;10.24;100.00
16544;BME280;8384;47.996;7.786;2023-02-18T00:56:06;99962.41;;;10.15;100.00
16544;BME280;8384;47.996;7.786;2023-02-18T00:58:33;99982.50;;;10.20;100.00
16544;BME280;8384;47.996;7.786;2023-02-18T01:00:58;99972.94;;;10.30;100.00
16544;BME280;8384;47.996;7.786;2023-02-18T01:03:24;99973.72;;;10.37;100.00
16544;BME280;8384;47.996;7.786;2023-02-18T01:05:50;99953.41;;;10.14;100.00
16544;BME280;8384;47.996;7.786;2023-02-18T01:08:16;99962.66;;;10.13;100.00
16544;BME280;8384;47.996;7.786;2023-02-18T01:10:44;99963.19;;;10.22;100.00
16544;BME280;8384;47.996;7.786;2023-02-18T01:13:11;99971.38;;;10.22;100.00
16544;BME280;8384;47.996;7.786;2023-02-18T01:15:37;99967.63;;;10.35;100.00
16544;BME280;8384;47.996;7.786;2023-02-18T01:18:03;99934.59;;;9.87;100.00
16544;BME280;8384;47.996;7.786;2023-02-18T01:20:29;99966.97;;;10.02;100.00
16544;BME280;8384;47.996;7.786;2023-02-18T01:22:54;99949.75;;;10.02;100.00
16544;BME280;8384;47.996;7.786;2023-02-18T01:25:20;99973.88;;;10.05;100.00
16544;BME280;8384;47.996;7.786;2023-02-18T01:27:45;99956.97;;;9.96;100.00
16544;BME280;8384;47.996;7.786;2023-02-18T01:30:13;99966.00;;;10.15;100.00
16544;BME280;8384;47.996;7.786;2023-02-18T01:32:39;99948.84;;;10.08;100.00
16544;BME280;8384;47.996;7.786;2023-02-18T01:35:05;99968.56;;;10.29;100.00
16544;BME280;8384;47.996;7.786;2023-02-18T01:37:31;99970.06;;;10.25;100.00
16544;BME280;8384;47.996;7.786;2023-02-18T01:39:56;99958.31;;;10.24;100.00
16544;BME280;8384;47.996;7.786;2023-02-18T01:42:25;99946.84;;;10.34;100.00
16544;BME280;8384;47.996;7.786;2023-02-18T01:44:50;99968.56;;;10.47;100.00
16544;BME280;8384;47.996;7.786;2023-02-18T01:47:17;99950.28;;;10.29;100.00
16544;BME280;8384;47.996;7.786;2023-02-18T01:49:44;99952.84;;;10.24;100.00
16544;BME280;8384;47.996;7.786;2023-02-18T01:52:14;99952.91;;;10.36;100.00
16544;BME280;8384;47.996;7.786;2023-02-18T01:54:47;99951.31;;;10.47;100.00
16544;BME280;8384;47.996;7.786;2023-02-18T01:57:23;99939.56;;;10.28;100.00
16544;BME280;8384;47.996;7.786;2023-02-18T02:00:04;99946.00;;;10.33;100.00
16544;BME280;8384;47.996;7.786;2023-02-18T02:02:31;99952.53;;;10.32;100.00
16544;BME280;8384;47.996;7.786;2023-02-18T02:04:57;99948.72;;;10.33;100.00
16544;BME280;8384;47.996;7.786;2023-02-18T02:07:24;99931.59;;;10.26;100.00
16544;BME280;8384;47.996;7.786;2023-02-18T02:09:52;99948.44;;;10.42;100.00
16544;BME280;8384;47.996;7.786;2023-02-18T02:12:46;99947.44;;;10.55;100.00
16544;BME280;8384;47.996;7.786;2023-02-18T02:15:26;99936.50;;;10.55;100.00
16544;BME280;8384;47.996;7.786;2023-02-18T02:18:09;99941.31;;;10.41;100.00
16544;BME280;8384;47.996;7.786;2023-02-18T02:26:29;99934.63;;;10.55;100.00
16544;BME280;8384;47.996;7.786;2023-02-18T02:38:15;99901.41;;;10.52;99.71
16544;BME280;8384;47.996;7.786;2023-02-18T02:40:56;99927.22;;;10.56;100.00
16544;BME280;8384;47.996;7.786;2023-02-18T02:43:43;99906.66;;;10.53;99.82
16544;BME280;8384;47.996;7.786;2023-02-18T02:46:21;99905.47;;;10.49;100.00
16544;BME280;8384;47.996;7.786;2023-02-18T02:48:57;99900.75;;;10.38;100.00
16544;BME280;8384;47.996;7.786;2023-02-18T02:51:28;99895.72;;;10.34;100.00
16544;BME280;8384;47.996;7.786;2023-02-18T02:54:13;99901.28;;;10.46;100.00
16544;BME280;8384;47.996;7.786;2023-02-18T02:56:39;99917.25;;;10.61;99.52
16544;BME280;8384;47.996;7.786;2023-02-18T02:59:08;99914.63;;;10.55;100.00
16544;BME280;8384;47.996;7.786;2023-02-18T03:04:52;99907.34;;;10.48;100.00
16544;BME280;8384;47.996;7.786;2023-02-18T03:07:57;99900.22;;;10.47;100.00
16544;BME280;8384;47.996;7.786;2023-02-18T03:10:42;99901.88;;;10.48;100.00
16544;BME280;8384;47.996;7.786;2023-02-18T03:16:33;99900.13;;;10.54;100.00
16544;BME280;8384;47.996;7.786;2023-02-18T03:19:10;99883.94;;;10.53;100.00
16544;BME280;8384;47.996;7.786;2023-02-18T03:21:48;99892.28;;;10.58;99.92
16544;BME280;8384;47.996;7.786;2023-02-18T03:24:21;99857.47;;;10.53;99.27
16544;BME280;8384;47.996;7.786;2023-02-18T03:26:51;99885.16;;;10.57;99.88
16544;BME280;8384;47.996;7.786;2023-02-18T03:29:20;99876.78;;;10.40;100.00
16544;BME280;8384;47.996;7.786;2023-02-18T03:31:48;99875.59;;;10.47;100.00
16544;BME280;8384;47.996;7.786;2023-02-18T03:34:21;99851.19;;;10.34;100.00
16544;BME280;8384;47.996;7.786;2023-02-18T03:36:49;99878.47;;;10.53;100.00
16544;BME280;8384;47.996;7.786;2023-02-18T03:39:17;99875.84;;;10.46;100.00
16544;BME280;8384;47.996;7.786;2023-02-18T03:41:42;99866.44;;;10.42;100.00
16544;BME280;8384;47.996;7.786;2023-02-18T03:44:09;99884.41;;;10.49;100.00
16544;BME280;8384;47.996;7.786;2023-02-18T03:46:36;99873.88;;;10.53;100.00
16544;BME280;8384;47.996;7.786;2023-02-18T03:49:02;99865.09;;;10.32;100.00
16544;BME280;8384;47.996;7.786;2023-02-18T03:51:28;99877.38;;;10.42;100.00
16544;BME280;8384;47.996;7.786;2023-02-18T03:53:53;99873.81;;;10.41;100.00
16544;BME280;8384;47.996;7.786;2023-02-18T03:56:19;99867.69;;;10.58;99.04
16544;BME280;8384;47.996;7.786;2023-02-18T03:58:44;99893.00;;;10.53;99.80
16544;BME280;8384;47.996;7.786;2023-02-18T04:01:10;99889.81;;;10.56;99.62
16544;BME280;8384;47.996;7.786;2023-02-18T04:03:35;99883.41;;;10.74;98.67
16544;BME280;8384;47.996;7.786;2023-02-18T04:06:00;99862.47;;;10.56;98.92
16544;BME280;8384;47.996;7.786;2023-02-18T04:08:26;99870.81;;;10.73;97.71
16544;BME280;8384;47.996;7.786;2023-02-18T04:10:51;99856.00;;;10.50;98.14
16544;BME280;8384;47.996;7.786;2023-02-18T04:13:17;99867.84;;;10.75;98.10
16544;BME280;8384;47.996;7.786;2023-02-18T04:15:43;99878.22;;;10.85;97.63
16544;BME280;8384;47.996;7.786;2023-02-18T04:18:09;99835.72;;;10.58;97.37
16544;BME280;8384;47.996;7.786;2023-02-18T04:20:34;99854.63;;;10.60;97.76
16544;BME280;8384;47.996;7.786;2023-02-18T04:23:00;99871.66;;;10.74;96.97
16544;BME280;8384;47.996;7.786;2023-02-18T04:25:26;99857.84;;;10.69;97.15
16544;BME280;8384;47.996;7.786;2023-02-18T04:27:51;99856.25;;;10.49;97.94
16544;BME280;8384;47.996;7.786;2023-02-18T04:30:16;99858.41;;;10.59;97.52
16544;BME280;8384;47.996;7.786;2023-02-18T04:32:42;99875.94;;;10.82;96.99
16544;BME280;8384;47.996;7.786;2023-02-18T04:35:07;99874.50;;;10.67;97.76
16544;BME280;8384;47.996;7.786;2023-02-18T04:37:32;99870.31;;;10.64;97.52
16544;BME280;8384;47.996;7.786;2023-02-18T04:39:58;99833.38;;;10.31;97.66
16544;BME280;8384;47.996;7.786;2023-02-18T04:42:23;99863.31;;;10.80;96.81
16544;BME280;8384;47.996;7.786;2023-02-18T04:44:48;99854.00;;;10.58;97.16
16544;BME280;8384;47.996;7.786;2023-02-18T04:47:14;99874.66;;;10.84;95.84
16544;BME280;8384;47.996;7.786;2023-02-18T04:49:39;99868.56;;;10.70;95.86
16544;BME280;8384;47.996;7.786;2023-02-18T04:52:04;99837.16;;;10.61;95.73
16544;BME280;8384;47.996;7.786;2023-02-18T04:54:30;99837.91;;;10.80;94.43
16544;BME280;8384;47.996;7.786;2023-02-18T04:56:55;99826.47;;;10.71;94.69
16544;BME280;8384;47.996;7.786;2023-02-18T04:59:20;99864.88;;;10.76;94.81
16544;BME280;8384;47.996;7.786;2023-02-18T05:01:46;99857.41;;;10.84;94.23
16544;BME280;8384;47.996;7.786;2023-02-18T05:04:11;99856.56;;;10.71;94.91
16544;BME280;8384;47.996;7.786;2023-02-18T05:06:36;99840.38;;;10.70;94.33
16544;BME280;8384;47.996;7.786;2023-02-18T05:09:04;99865.69;;;10.65;94.34
16544;BME280;8384;47.996;7.786;2023-02-18T05:11:29;99871.75;;;10.67;94.19
16544;BME280;8384;47.996;7.786;2023-02-18T05:13:55;99865.94;;;10.75;93.87
16544;BME280;8384;47.996;7.786;2023-02-18T05:16:20;99869.97;;;10.73;94.01
16544;BME280;8384;47.996;7.786;2023-02-18T05:18:45;99869.84;;;10.68;94.13
16544;BME280;8384;47.996;7.786;2023-02-18T05:21:11;99861.75;;;10.61;94.12
16544;BME280;8384;47.996;7.786;2023-02-18T05:23:36;99867.84;;;10.75;93.79
16544;BME280;8384;47.996;7.786;2023-02-18T05:26:02;99847.72;;;10.57;94.59
16544;BME280;8384;47.996;7.786;2023-02-18T05:28:27;99857.34;;;10.60;95.13
16544;BME280;8384;47.996;7.786;2023-02-18T05:30:52;99856.38;;;10.42;95.55
16544;BME280;8384;47.996;7.786;2023-02-18T05:33:18;99843.34;;;10.38;96.23
16544;BME280;8384;47.996;7.786;2023-02-18T05:35:44;99854.38;;;10.61;95.26
16544;BME280;8384;47.996;7.786;2023-02-18T05:38:09;99845.66;;;10.41;96.60
16544;BME280;8384;47.996;7.786;2023-02-18T05:40:34;99828.00;;;10.36;95.75
16544;BME280;8384;47.996;7.786;2023-02-18T05:42:59;99856.56;;;10.41;96.18
16544;BME280;8384;47.996;7.786;2023-02-18T05:45:25;99814.06;;;10.14;96.98
16544;BME280;8384;47.996;7.786;2023-02-18T05:47:50;99847.78;;;10.39;97.32
16544;BME280;8384;47.996;7.786;2023-02-18T05:50:16;99835.91;;;10.45;96.39
16544;BME280;8384;47.996;7.786;2023-02-18T05:52:41;99818.09;;;10.24;96.23
16544;BME280;8384;47.996;7.786;2023-02-18T05:55:06;99851.00;;;10.47;96.59
16544;BME280;8384;47.996;7.786;2023-02-18T05:57:32;99848.28;;;10.47;96.43
16544;BME280;8384;47.996;7.786;2023-02-18T05:59:57;99847.22;;;10.48;95.71
16544;BME280;8384;47.996;7.786;2023-02-18T06:02:22;99831.22;;;10.33;97.29
16544;BME280;8384;47.996;7.786;2023-02-18T06:04:48;99857.22;;;10.55;96.60
16544;BME280;8384;47.996;7.786;2023-02-18T06:07:13;99849.22;;;10.41;96.96
16544;BME280;8384;47.996;7.786;2023-02-18T06:09:38;99825.84;;;10.27;97.68
16544;BME280;8384;47.996;7.786;2023-02-18T06:12:04;99836.00;;;10.38;97.37
16544;BME280;8384;47.996;7.786;2023-02-18T06:14:29;99837.34;;;10.47;96.62
16544;BME280;8384;47.996;7.786;2023-02-18T06:16:54;99833.19;;;10.45;97.13
16544;BME280;8384;47.996;7.786;2023-02-18T06:19:19;99848.78;;;10.56;96.34
16544;BME280;8384;47.996;7.786;2023-02-18T06:21:45;99816.59;;;10.28;97.16
16544;BME280;8384;47.996;7.786;2023-02-18T06:24:10;99830.44;;;10.45;96.75
16544;BME280;8384;47.996;7.786;2023-02-18T06:26:35;99829.03;;;10.42;96.67
16544;BME280;8384;47.996;7.786;2023-02-18T06:29:01;99823.66;;;10.47;96.11
16544;BME280;8384;47.996;7.786;2023-02-18T06:31:26;99815.25;;;10.49;96.10
16544;BME280;8384;47.996;7.786;2023-02-18T06:33:51;99828.00;;;10.55;95.96
16544;BME280;8384;47.996;7.786;2023-02-18T06:36:17;99838.69;;;10.57;95.45
16544;BME280;8384;47.996;7.786;2023-02-18T06:38:43;99825.28;;;10.67;94.88
16544;BME280;8384;47.996;7.786;2023-02-18T06:41:10;99829.66;;;10.56;95.05
16544;BME280;8384;47.996;7.786;2023-02-18T06:43:36;99816.81;;;10.57;94.16
16544;BME280;8384;47.996;7.786;2023-02-18T06:46:02;99838.50;;;10.82;92.92
16544;BME280;8384;47.996;7.786;2023-02-18T06:48:28;99826.72;;;10.82;92.83
16544;BME280;8384;47.996;7.786;2023-02-18T06:50:53;99825.63;;;10.71;93.38
16544;BME280;8384;47.996;7.786;2023-02-18T06:53:19;99831.59;;;10.79;93.30
16544;BME280;8384;47.996;7.786;2023-02-18T06:55:44;99839.09;;;10.84;92.50
16544;BME280;8384;47.996;7.786;2023-02-18T06:58:11;99830.38;;;10.87;92.32
16544;BME280;8384;47.996;7.786;2023-02-18T07:00:36;99819.34;;;10.82;91.82
16544;BME280;8384;47.996;7.786;2023-02-18T07:03:02;99838.03;;;10.97;91.41
16544;BME280;8384;47.996;7.786;2023-02-18T07:05:28;99828.38;;;10.83;91.59
16544;BME280;8384;47.996;7.786;2023-02-18T07:07:53;99839.19;;;10.89;91.18
16544;BME280;8384;47.996;7.786;2023-02-18T07:10:19;99835.50;;;10.84;91.33
16544;BME280;8384;47.996;7.786;2023-02-18T07:12:44;99840.19;;;10.95;90.59
16544;BME280;8384;47.996;7.786;2023-02-18T07:15:10;99842.78;;;11.02;89.80
16544;BME280;8384;47.996;7.786;2023-02-18T07:17:35;99837.66;;;11.05;89.57
16544;BME280;8384;47.996;7.786;2023-02-18T07:20:01;99833.63;;;10.96;89.40
16544;BME280;8384;47.996;7.786;2023-02-18T07:22:26;99818.75;;;10.92;89.10
16544;BME280;8384;47.996;7.786;2023-02-18T07:24:52;99835.38;;;11.26;88.34
16544;BME280;8384;47.996;7.786;2023-02-18T07:27:18;99835.53;;;11.19;87.96
16544;BME280;8384;47.996;7.786;2023-02-18T07:29:44;99828.16;;;11.08;88.59
16544;BME280;8384;47.996;7.786;2023-02-18T07:32:13;99805.44;;;11.07;88.07
16544;BME280;8384;47.996;7.786;2023-02-18T07:34:39;99845.38;;;11.32;88.18
16544;BME280;8384;47.996;7.786;2023-02-18T07:37:04;99819.09;;;11.31;86.85
16544;BME280;8384;47.996;7.786;2023-02-18T07:39:38;99848.84;;;11.39;87.34
16544;BME280;8384;47.996;7.786;2023-02-18T07:42:04;99847.19;;;11.38;86.23
16544;BME280;8384;47.996;7.786;2023-02-18T07:44:29;99851.81;;;11.50;85.97
16544;BME280;8384;47.996;7.786;2023-02-18T07:46:55;99828.34;;;11.42;85.63
16544;BME280;8384;47.996;7.786;2023-02-18T07:49:20;99842.91;;;11.43;85.99
16544;BME280;8384;47.996;7.786;2023-02-18T07:51:47;99838.63;;;11.35;86.12
16544;BME280;8384;47.996;7.786;2023-02-18T07:54:12;99837.16;;;11.44;85.79
16544;BME280;8384;47.996;7.786;2023-02-18T07:56:37;99847.91;;;11.46;85.93
16544;BME280;8384;47.996;7.786;2023-02-18T07:59:03;99840.25;;;11.60;85.03
16544;BME280;8384;47.996;7.786;2023-02-18T08:01:28;99847.47;;;11.66;84.30
16544;BME280;8384;47.996;7.786;2023-02-18T08:03:53;99837.97;;;11.68;83.94
16544;BME280;8384;47.996;7.786;2023-02-18T08:06:27;99828.84;;;11.39;85.30
16544;BME280;8384;47.996;7.786;2023-02-18T08:08:52;99841.09;;;11.48;85.07
16544;BME280;8384;47.996;7.786;2023-02-18T08:11:18;99844.19;;;11.64;84.08
16544;BME280;8384;47.996;7.786;2023-02-18T08:13:43;99813.56;;;11.55;84.43
16544;BME280;8384;47.996;7.786;2023-02-18T08:16:09;99841.63;;;11.74;84.71
16544;BME280;8384;47.996;7.786;2023-02-18T08:18:34;99819.28;;;11.65;83.73
16544;BME280;8384;47.996;7.786;2023-02-18T08:20:59;99834.16;;;11.69;84.34
16544;BME280;8384;47.996;7.786;2023-02-18T08:23:25;99838.53;;;11.82;82.52
16544;BME280;8384;47.996;7.786;2023-02-18T08:25:51;99832.81;;;11.72;82.83
16544;BME280;8384;47.996;7.786;2023-02-18T08:28:18;99814.38;;;11.67;83.13
16544;BME280;8384;47.996;7.786;2023-02-18T08:30:45;99843.44;;;11.68;82.67
16544;BME280;8384;47.996;7.786;2023-02-18T08:33:10;99841.03;;;11.72;83.43
16544;BME280;8384;47.996;7.786;2023-02-18T08:35:36;99820.88;;;11.90;81.75
16544;BME280;8384;47.996;7.786;2023-02-18T08:38:01;99845.63;;;11.95;81.63
16544;BME280;8384;47.996;7.786;2023-02-18T08:40:26;99830.34;;;11.70;82.91
16544;BME280;8384;47.996;7.786;2023-02-18T08:42:51;99833.03;;;11.82;83.11
16544;BME280;8384;47.996;7.786;2023-02-18T08:45:17;99813.31;;;11.68;82.70
16544;BME280;8384;47.996;7.786;2023-02-18T08:47:42;99842.28;;;12.05;82.10
16544;BME280;8384;47.996;7.786;2023-02-18T08:50:08;99825.00;;;11.93;81.64
16544;BME280;8384;47.996;7.786;2023-02-18T08:52:33;99834.94;;;11.82;82.36
16544;BME280;8384;47.996;7.786;2023-02-18T08:54:59;99839.31;;;11.95;82.56
16544;BME280;8384;47.996;7.786;2023-02-18T08:57:24;99822.63;;;11.96;81.58
16544;BME280;8384;47.996;7.786;2023-02-18T08:59:49;99807.28;;;11.95;81.40
16544;BME280;8384;47.996;7.786;2023-02-18T09:02:14;99815.66;;;11.89;81.94
16544;BME280;8384;47.996;7.786;2023-02-18T09:04:40;99833.16;;;11.99;81.67
16544;BME280;8384;47.996;7.786;2023-02-18T09:07:05;99838.63;;;11.99;81.36
16544;BME280;8384;47.996;7.786;2023-02-18T09:09:31;99825.31;;;11.79;82.73
16544;BME280;8384;47.996;7.786;2023-02-18T09:11:56;99834.06;;;12.05;81.84
16544;BME280;8384;47.996;7.786;2023-02-18T09:14:21;99829.66;;;12.04;81.28
16544;BME280;8384;47.996;7.786;2023-02-18T09:16:47;99825.84;;;12.05;80.98
16544;BME280;8384;47.996;7.786;2023-02-18T09:19:12;99827.03;;;12.09;81.13
16544;BME280;8384;47.996;7.786;2023-02-18T09:21:37;99839.13;;;12.25;80.37
16544;BME280;8384;47.996;7.786;2023-02-18T09:24:03;99863.19;;;12.23;81.70
16544;BME280;8384;47.996;7.786;2023-02-18T09:26:28;99853.00;;;12.36;81.00
16544;BME280;8384;47.996;7.786;2023-02-18T09:28:55;99866.31;;;12.44;80.39
16544;BME280;8384;47.996;7.786;2023-02-18T09:31:23;99857.34;;;12.20;81.80
16544;BME280;8384;47.996;7.786;2023-02-18T09:33:54;99840.41;;;12.23;80.65
16544;BME280;8384;47.996;7.786;2023-02-18T09:36:20;99867.41;;;12.43;79.44
16544;BME280;8384;47.996;7.786;2023-02-18T09:38:46;99857.16;;;12.38;79.93
16544;BME280;8384;47.996;7.786;2023-02-18T09:41:43;99849.00;;;12.26;80.49
16544;BME280;8384;47.996;7.786;2023-02-18T09:47:04;99850.91;;;12.26;79.80
16544;BME280;8384;47.996;7.786;2023-02-18T09:49:34;99838.38;;;12.30;78.95
16544;BME280;8384;47.996;7.786;2023-02-18T09:52:11;99842.44;;;12.27;79.37
16544;BME280;8384;47.996;7.786;2023-02-18T09:54:37;99811.22;;;12.28;79.36
16544;BME280;8384;47.996;7.786;2023-02-18T09:57:04;99840.47;;;12.40;78.75
16544;BME280;8384;47.996;7.786;2023-02-18T09:59:31;99832.25;;;12.57;78.37
16544;BME280;8384;47.996;7.786;2023-02-18T10:01:57;99841.81;;;12.71;77.50
16544;BME280;8384;47.996;7.786;2023-02-18T10:04:30;99835.75;;;12.52;78.23
16544;BME280;8384;47.996;7.786;2023-02-18T10:07:00;99807.47;;;12.35;77.57
16544;BME280;8384;47.996;7.786;2023-02-18T10:09:35;99841.75;;;12.66;77.46
16544;BME280;8384;47.996;7.786;2023-02-18T10:12:13;99811.63;;;12.37;76.92
16544;BME280;8384;47.996;7.786;2023-02-18T10:14:39;99837.94;;;12.67;77.27
16544;BME280;8384;47.996;7.786;2023-02-18T10:17:06;99841.69;;;12.78;76.48
16544;BME280;8384;47.996;7.786;2023-02-18T10:19:37;99819.81;;;12.83;76.58
16544;BME280;8384;47.996;7.786;2023-02-18T10:22:07;99824.63;;;12.93;76.95
16544;BME280;8384;47.996;7.786;2023-02-18T10:27:05;99823.91;;;13.37;74.72
16544;BME280;8384;47.996;7.786;2023-02-18T10:29:31;99795.44;;;13.04;74.21
16544;BME280;8384;47.996;7.786;2023-02-18T10:32:10;99805.16;;;13.12;74.51
16544;BME280;8384;47.996;7.786;2023-02-18T10:34:43;99804.63;;;13.32;73.43
16544;BME280;8384;47.996;7.786;2023-02-18T10:40:23;99822.38;;;14.13;70.09
16544;BME280;8384;47.996;7.786;2023-02-18T10:43:11;99799.88;;;14.16;70.03
16544;BME280;8384;47.996;7.786;2023-02-18T10:45:56;99806.44;;;13.88;70.09
16544;BME280;8384;47.996;7.786;2023-02-18T10:48:35;99807.53;;;13.87;71.51
16544;BME280;8384;47.996;7.786;2023-02-18T10:51:25;99813.13;;;13.97;70.23
16544;BME280;8384;47.996;7.786;2023-02-18T10:53:52;99813.28;;;13.63;71.90
16544;BME280;8384;47.996;7.786;2023-02-18T10:56:40;99811.50;;;13.74;72.11
16544;BME280;8384;47.996;7.786;2023-02-18T10:59:20;99751.69;;;13.59;70.51
16544;BME280;8384;47.996;7.786;2023-02-18T11:01:55;99790.47;;;13.85;70.52
16544;BME280;8384;47.996;7.786;2023-02-18T11:04:25;99793.44;;;14.05;70.11
16544;BME280;8384;47.996;7.786;2023-02-18T11:06:52;99808.06;;;14.38;68.62
16544;BME280;8384;47.996;7.786;2023-02-18T11:12:00;99816.44;;;13.99;69.56
16544;BME280;8384;47.996;7.786;2023-02-18T11:14:47;99762.91;;;13.79;69.53
16544;BME280;8384;47.996;7.786;2023-02-18T11:17:17;99808.25;;;14.04;68.44
16544;BME280;8384;47.996;7.786;2023-02-18T11:19:50;99821.13;;;13.54;70.07
16544;BME280;8384;47.996;7.786;2023-02-18T11:22:19;99809.78;;;13.90;68.87
16544;BME280;8384;47.996;7.786;2023-02-18T11:24:45;99793.34;;;13.73;69.58
16544;BME280;8384;47.996;7.786;2023-02-18T11:27:41;99798.56;;;13.74;69.76
16544;BME280;8384;47.996;7.786;2023-02-18T11:32:55;99806.06;;;13.57;69.79
16544;BME280;8384;47.996;7.786;2023-02-18T11:35:26;99799.28;;;13.64;69.97
16544;BME280;8384;47.996;7.786;2023-02-18T11:37:53;99801.78;;;13.66;68.35
16544;BME280;8384;47.996;7.786;2023-02-18T11:40:23;99799.50;;;13.58;69.97
16544;BME280;8384;47.996;7.786;2023-02-18T11:42:49;99790.78;;;13.66;69.51
16544;BME280;8384;47.996;7.786;2023-02-18T11:45:29;99802.09;;;13.47;70.24
16544;BME280;8384;47.996;7.786;2023-02-18T11:48:01;99785.03;;;13.45;70.02
16544;BME280;8384;47.996;7.786;2023-02-18T11:50:31;99789.50;;;13.52;70.08
16544;BME280;8384;47.996;7.786;2023-02-18T11:52:57;99782.88;;;13.47;70.15
16544;BME280;8384;47.996;7.786;2023-02-18T11:55:26;99781.47;;;13.45;69.85
16544;BME280;8384;47.996;7.786;2023-02-18T11:57:58;99762.88;;;13.13;70.76
16544;BME280;8384;47.996;7.786;2023-02-18T12:00:35;99757.22;;;13.19;70.47
16544;BME280;8384;47.996;7.786;2023-02-18T12:03:06;99768.69;;;13.16;71.18
16544;BME280;8384;47.996;7.786;2023-02-18T12:05:33;99764.88;;;13.40;70.19
16544;BME280;8384;47.996;7.786;2023-02-18T12:08:04;99764.13;;;13.22;70.57
16544;BME280;8384;47.996;7.786;2023-02-18T12:10:38;99759.63;;;13.38;70.89
16544;BME280;8384;47.996;7.786;2023-02-18T12:18:52;99750.16;;;13.68;70.19
16544;BME280;8384;47.996;7.786;2023-02-18T12:23:56;99743.97;;;13.56;69.40
16544;BME280;8384;47.996;7.786;2023-02-18T12:27:23;99745.69;;;13.62;69.37
16544;BME280;8384;47.996;7.786;2023-02-18T12:29:58;99738.28;;;13.62;68.97
16544;BME280;8384;47.996;7.786;2023-02-18T12:35:14;99735.00;;;13.88;68.29
16544;BME280;8384;47.996;7.786;2023-02-18T12:38:22;99734.03;;;14.04;66.69
16544;BME280;8384;47.996;7.786;2023-02-18T12:47:33;99738.63;;;14.91;62.56
16544;BME280;8384;47.996;7.786;2023-02-18T12:50:21;99726.31;;;14.34;64.36
16544;BME280;8384;47.996;7.786;2023-02-18T13:09:26;99727.94;;;14.62;62.80
16544;BME280;8384;47.996;7.786;2023-02-18T13:14:45;99719.63;;;14.19;63.25
16544;BME280;8384;47.996;7.786;2023-02-18T13:17:15;99696.03;;;13.96;64.02
16544;BME280;8384;47.996;7.786;2023-02-18T13:22:39;99694.19;;;14.07;63.25
16544;BME280;8384;47.996;7.786;2023-02-18T13:25:11;99694.13;;;14.29;62.15
16544;BME280;8384;47.996;7.786;2023-02-18T13:28:02;99686.22;;;14.05;63.02
16544;BME280;8384;47.996;7.786;2023-02-18T13:30:48;99666.00;;;13.89;63.35
16544;BME280;8384;47.996;7.786;2023-02-18T13:33:22;99686.09;;;13.90;64.10
16544;BME280;8384;47.996;7.786;2023-02-18T13:36:17;99693.03;;;13.98;64.69
16544;BME280;8384;47.996;7.786;2023-02-18T13:39:02;99675.72;;;14.35;62.14
16544;BME280;8384;47.996;7.786;2023-02-18T13:41:28;99674.81;;;14.24;62.62
16544;BME280;8384;47.996;7.786;2023-02-18T13:43:58;99662.13;;;14.18;62.95
16544;BME280;8384;47.996;7.786;2023-02-18T13:46:24;99617.50;;;13.73;63.03
16544;BME280;8384;47.996;7.786;2023-02-18T13:49:09;99680.72;;;14.05;61.83
16544;BME280;8384;47.996;7.786;2023-02-18T13:51:39;99660.72;;;14.15;62.93
16544;BME280;8384;47.996;7.786;2023-02-18T13:54:17;99676.25;;;14.27;61.84
16544;BME280;8384;47.996;7.786;2023-02-18T13:56:50;99660.31;;;14.29;61.98
16544;BME280;8384;47.996;7.786;2023-02-18T13:59:35;99659.94;;;14.20;61.64
16544;BME280;8384;47.996;7.786;2023-02-18T14:07:36;99652.63;;;14.36;60.58
16544;BME280;8384;47.996;7.786;2023-02-18T14:18:21;99640.31;;;14.44;59.90
16544;BME280;8384;47.996;7.786;2023-02-18T14:20:48;99639.81;;;14.14;61.21
16544;BME280;8384;47.996;7.786;2023-02-18T14:25:52;99630.38;;;14.37;60.45
16544;BME280;8384;47.996;7.786;2023-02-18T14:33:36;99631.81;;;14.98;57.71
16544;BME280;8384;47.996;7.786;2023-02-18T14:47:16;99646.25;;;14.68;58.58
16544;BME280;8384;47.996;7.786;2023-02-18T14:49:53;99630.91;;;14.34;59.46
16544;BME280;8384;47.996;7.786;2023-02-18T14:52:29;99644.13;;;14.37;60.50
16544;BME280;8384;47.996;7.786;2023-02-18T14:54:57;99607.94;;;14.13;60.03
16544;BME280;8384;47.996;7.786;2023-02-18T14:57:32;99620.72;;;14.35;59.69
16544;BME280;8384;47.996;7.786;2023-02-18T14:59:59;99603.41;;;13.97;60.84
16544;BME280;8384;47.996;7.786;2023-02-18T15:02:27;99598.81;;;14.07;60.14
16544;BME280;8384;47.996;7.786;2023-02-18T15:05:14;99619.78;;;14.14;59.78